sensor_id;sensor_type;location;lat;lon;timestamp;temperature;humidity
23579;DHT22;11967;50.852;4.400;2023-09-08T00:01:57;28.20;99.90
23579;DHT22;11967;50.852;4.400;2023-09-08T00:04:22;28.20;99.90
23579;DHT22;11967;50.852;4.400;2023-09-08T00:06:49;28.10;99.90
23579;DHT22;11967;50.852;4.400;2023-09-08T00:09:15;28.00;99.90
23579;DHT22;11967;50.852;4.400;2023-09-08T00:11:41;27.90;99.90
23579;DHT22;11967;50.852;4.400;2023-09-08T00:14:06;27.70;99.90
23579;DHT22;11967;50.852;4.400;2023-09-08T00:16:33;27.90;99.90
23579;DHT22;11967;50.852;4.400;2023-09-08T00:18:59;27.90;99.90
23579;DHT22;11967;50.852;4.400;2023-09-08T00:21:25;27.80;99.90
23579;DHT22;11967;50.852;4.400;2023-09-08T00:23:54;27.70;99.90
23579;DHT22;11967;50.852;4.400;2023-09-08T00:26:20;27.80;99.90
23579;DHT22;11967;50.852;4.400;2023-09-08T00:28:47;27.80;99.90
23579;DHT22;11967;50.852;4.400;2023-09-08T00:31:13;27.70;99.90
23579;DHT22;11967;50.852;4.400;2023-09-08T00:33:38;27.60;99.90
23579;DHT22;11967;50.852;4.400;2023-09-08T00:36:06;27.60;99.90
23579;DHT22;11967;50.852;4.400;2023-09-08T00:38:32;27.50;99.90
23579;DHT22;11967;50.852;4.400;2023-09-08T00:40:57;27.50;99.90
23579;DHT22;11967;50.852;4.400;2023-09-08T00:43:24;27.50;99.90
23579;DHT22;11967;50.852;4.400;2023-09-08T00:45:50;27.50;99.90
23579;DHT22;11967;50.852;4.400;2023-09-08T00:48:16;27.50;99.90
23579;DHT22;11967;50.852;4.400;2023-09-08T00:50:41;27.50;99.90
23579;DHT22;11967;50.852;4.400;2023-09-08T00:53:07;27.50;99.90
23579;DHT22;11967;50.852;4.400;2023-09-08T00:55:34;27.50;99.90
23579;DHT22;11967;50.852;4.400;2023-09-08T00:58:01;27.50;99.90
23579;DHT22;11967;50.852;4.400;2023-09-08T01:00:27;27.50;99.90
23579;DHT22;11967;50.852;4.400;2023-09-08T01:02:53;27.50;99.90
23579;DHT22;11967;50.852;4.400;2023-09-08T01:05:19;27.40;99.90
23579;DHT22;11967;50.852;4.400;2023-09-08T01:07:47;27.40;99.90
23579;DHT22;11967;50.852;4.400;2023-09-08T01:10:14;27.30;99.90
23579;DHT22;11967;50.852;4.400;2023-09-08T01:12:41;27.20;99.90
23579;DHT22;11967;50.852;4.400;2023-09-08T01:15:07;27.30;99.90
23579;DHT22;11967;50.852;4.400;2023-09-08T01:17:34;27.20;99.90
23579;DHT22;11967;50.852;4.400;2023-09-08T01:25:57;27.30;99.90
23579;DHT22;11967;50.852;4.400;2023-09-08T01:28:25;27.30;99.90
23579;DHT22;11967;50.852;4.400;2023-09-08T01:30:52;27.30;99.90
23579;DHT22;11967;50.852;4.400;2023-09-08T01:33:18;27.30;99.90
23579;DHT22;11967;50.852;4.400;2023-09-08T01:35:45;27.50;99.90
23579;DHT22;11967;50.852;4.400;2023-09-08T01:38:10;27.50;99.90
23579;DHT22;11967;50.852;4.400;2023-09-08T01:40:36;27.50;99.90
23579;DHT22;11967;50.852;4.400;2023-09-08T01:43:02;27.40;99.90
23579;DHT22;11967;50.852;4.400;2023-09-08T01:45:27;27.40;99.90
23579;DHT22;11967;50.852;4.400;2023-09-08T01:47:53;27.30;99.90
23579;DHT22;11967;50.852;4.400;2023-09-08T01:50:19;27.40;99.90
23579;DHT22;11967;50.852;4.400;2023-09-08T01:52:47;27.30;99.90
23579;DHT22;11967;50.852;4.400;2023-09-08T01:55:14;27.30;99.90
23579;DHT22;11967;50.852;4.400;2023-09-08T01:57:41;27.20;99.90
23579;DHT22;11967;50.852;4.400;2023-09-08T02:00:07;27.30;99.90
23579;DHT22;11967;50.852;4.400;2023-09-08T02:02:33;27.30;99.90
23579;DHT22;11967;50.852;4.400;2023-09-08T02:04:59;27.30;99.90
23579;DHT22;11967;50.852;4.400;2023-09-08T02:07:24;27.30;99.90
23579;DHT22;11967;50.852;4.400;2023-09-08T02:09:50;27.30;99.90
23579;DHT22;11967;50.852;4.400;2023-09-08T02:12:16;27.30;99.90
23579;DHT22;11967;50.852;4.400;2023-09-08T02:14:41;27.20;99.90
23579;DHT22;11967;50.852;4.400;2023-09-08T02:17:07;27.20;99.90
23579;DHT22;11967;50.852;4.400;2023-09-08T02:19:32;27.20;99.90
23579;DHT22;11967;50.852;4.400;2023-09-08T02:21:58;27.20;99.90
23579;DHT22;11967;50.852;4.400;2023-09-08T02:24:24;27.20;99.90
23579;DHT22;11967;50.852;4.400;2023-09-08T02:26:49;27.20;99.90
23579;DHT22;11967;50.852;4.400;2023-09-08T02:29:15;27.20;99.90
23579;DHT22;11967;50.852;4.400;2023-09-08T02:31:41;27.20;99.90
23579;DHT22;11967;50.852;4.400;2023-09-08T02:34:06;27.20;99.90
23579;DHT22;11967;50.852;4.400;2023-09-08T02:36:33;27.20;99.90
23579;DHT22;11967;50.852;4.400;2023-09-08T02:38:59;27.20;99.90
23579;DHT22;11967;50.852;4.400;2023-09-08T02:41:25;27.10;99.90
23579;DHT22;11967;50.852;4.400;2023-09-08T02:43:50;27.10;99.90
23579;DHT22;11967;50.852;4.400;2023-09-08T02:46:16;27.00;99.90
23579;DHT22;11967;50.852;4.400;2023-09-08T02:48:42;27.00;99.90
23579;DHT22;11967;50.852;4.400;2023-09-08T02:51:07;27.00;99.90
23579;DHT22;11967;50.852;4.400;2023-09-08T02:53:35;26.90;99.90
23579;DHT22;11967;50.852;4.400;2023-09-08T02:56:01;26.90;99.90
23579;DHT22;11967;50.852;4.400;2023-09-08T02:58:29;26.90;99.90
23579;DHT22;11967;50.852;4.400;2023-09-08T03:00:56;26.90;99.90
23579;DHT22;11967;50.852;4.400;2023-09-08T03:03:22;27.00;99.90
23579;DHT22;11967;50.852;4.400;2023-09-08T03:05:53;26.90;99.90
23579;DHT22;11967;50.852;4.400;2023-09-08T03:08:22;26.80;99.90
23579;DHT22;11967;50.852;4.400;2023-09-08T03:10:49;26.80;99.90
23579;DHT22;11967;50.852;4.400;2023-09-08T03:13:15;26.80;99.90
23579;DHT22;11967;50.852;4.400;2023-09-08T03:15:41;26.90;99.90
23579;DHT22;11967;50.852;4.400;2023-09-08T03:18:07;26.90;99.90
23579;DHT22;11967;50.852;4.400;2023-09-08T03:20:32;26.90;99.90
23579;DHT22;11967;50.852;4.400;2023-09-08T03:22:58;26.90;99.90
23579;DHT22;11967;50.852;4.400;2023-09-08T03:25:24;26.80;99.90
23579;DHT22;11967;50.852;4.400;2023-09-08T03:27:50;26.80;99.90
23579;DHT22;11967;50.852;4.400;2023-09-08T03:30:15;26.80;99.90
23579;DHT22;11967;50.852;4.400;2023-09-08T03:32:41;26.80;99.90
23579;DHT22;11967;50.852;4.400;2023-09-08T03:35:08;26.80;99.90
23579;DHT22;11967;50.852;4.400;2023-09-08T03:37:35;26.80;99.90
23579;DHT22;11967;50.852;4.400;2023-09-08T03:40:01;26.70;99.90
23579;DHT22;11967;50.852;4.400;2023-09-08T03:42:26;26.60;99.90
23579;DHT22;11967;50.852;4.400;2023-09-08T03:44:52;26.60;99.90
23579;DHT22;11967;50.852;4.400;2023-09-08T03:47:18;26.50;99.90
23579;DHT22;11967;50.852;4.400;2023-09-08T03:49:43;26.50;99.90
23579;DHT22;11967;50.852;4.400;2023-09-08T03:52:10;26.50;99.90
23579;DHT22;11967;50.852;4.400;2023-09-08T03:54:35;26.60;99.90
23579;DHT22;11967;50.852;4.400;2023-09-08T03:57:02;26.70;99.90
23579;DHT22;11967;50.852;4.400;2023-09-08T03:59:28;26.70;99.90
23579;DHT22;11967;50.852;4.400;2023-09-08T04:01:54;26.60;99.90
23579;DHT22;11967;50.852;4.400;2023-09-08T04:04:19;26.70;99.90
23579;DHT22;11967;50.852;4.400;2023-09-08T04:06:45;26.70;99.90
23579;DHT22;11967;50.852;4.400;2023-09-08T04:09:11;26.70;99.90
23579;DHT22;11967;50.852;4.400;2023-09-08T04:11:37;26.70;99.90
23579;DHT22;11967;50.852;4.400;2023-09-08T04:14:02;26.60;99.90
23579;DHT22;11967;50.852;4.400;2023-09-08T04:16:28;26.60;99.90
23579;DHT22;11967;50.852;4.400;2023-09-08T04:18:54;26.70;99.90
23579;DHT22;11967;50.852;4.400;2023-09-08T04:21:19;26.70;99.90
23579;DHT22;11967;50.852;4.400;2023-09-08T04:23:45;26.70;99.90
23579;DHT22;11967;50.852;4.400;2023-09-08T04:26:12;26.70;99.90
23579;DHT22;11967;50.852;4.400;2023-09-08T04:28:37;26.70;99.90
23579;DHT22;11967;50.852;4.400;2023-09-08T04:31:03;26.60;99.90
23579;DHT22;11967;50.852;4.400;2023-09-08T04:33:29;26.70;99.90
23579;DHT22;11967;50.852;4.400;2023-09-08T04:35:55;26.80;99.90
23579;DHT22;11967;50.852;4.400;2023-09-08T04:38:20;26.90;99.90
23579;DHT22;11967;50.852;4.400;2023-09-08T04:40:46;27.10;99.90
23579;DHT22;11967;50.852;4.400;2023-09-08T04:43:12;27.20;99.90
23579;DHT22;11967;50.852;4.400;2023-09-08T04:45:37;27.20;99.90
23579;DHT22;11967;50.852;4.400;2023-09-08T04:48:04;27.10;99.90
23579;DHT22;11967;50.852;4.400;2023-09-08T04:50:30;27.10;99.90
23579;DHT22;11967;50.852;4.400;2023-09-08T04:52:56;27.00;99.90
23579;DHT22;11967;50.852;4.400;2023-09-08T04:55:21;27.00;99.90
23579;DHT22;11967;50.852;4.400;2023-09-08T04:57:47;27.00;99.90
23579;DHT22;11967;50.852;4.400;2023-09-08T05:00:13;27.00;99.90
23579;DHT22;11967;50.852;4.400;2023-09-08T05:02:39;27.00;99.90
23579;DHT22;11967;50.852;4.400;2023-09-08T05:05:04;26.90;99.90
23579;DHT22;11967;50.852;4.400;2023-09-08T05:07:30;26.70;99.90
23579;DHT22;11967;50.852;4.400;2023-09-08T05:09:56;26.60;99.90
23579;DHT22;11967;50.852;4.400;2023-09-08T05:12:21;26.50;99.90
23579;DHT22;11967;50.852;4.400;2023-09-08T05:14:47;26.50;99.90
23579;DHT22;11967;50.852;4.400;2023-09-08T05:17:12;26.60;99.90
23579;DHT22;11967;50.852;4.400;2023-09-08T05:19:38;26.70;99.90
23579;DHT22;11967;50.852;4.400;2023-09-08T05:22:05;26.60;99.90
23579;DHT22;11967;50.852;4.400;2023-09-08T05:24:32;26.60;99.90
23579;DHT22;11967;50.852;4.400;2023-09-08T05:26:58;26.50;99.90
23579;DHT22;11967;50.852;4.400;2023-09-08T05:29:23;26.50;99.90
23579;DHT22;11967;50.852;4.400;2023-09-08T05:31:49;26.50;99.90
23579;DHT22;11967;50.852;4.400;2023-09-08T05:34:15;26.30;99.90
23579;DHT22;11967;50.852;4.400;2023-09-08T05:36:41;26.50;99.90
23579;DHT22;11967;50.852;4.400;2023-09-08T05:39:07;26.50;99.90
23579;DHT22;11967;50.852;4.400;2023-09-08T05:41:33;26.60;99.90
23579;DHT22;11967;50.852;4.400;2023-09-08T05:43:59;26.60;99.90
23579;DHT22;11967;50.852;4.400;2023-09-08T05:46:25;26.50;99.90
23579;DHT22;11967;50.852;4.400;2023-09-08T05:48:51;26.50;99.90
23579;DHT22;11967;50.852;4.400;2023-09-08T05:51:16;26.40;99.90
23579;DHT22;11967;50.852;4.400;2023-09-08T05:53:42;26.40;99.90
23579;DHT22;11967;50.852;4.400;2023-09-08T05:56:08;26.40;99.90
23579;DHT22;11967;50.852;4.400;2023-09-08T05:58:33;26.40;99.90
23579;DHT22;11967;50.852;4.400;2023-09-08T06:01:01;26.30;99.90
23579;DHT22;11967;50.852;4.400;2023-09-08T06:03:28;26.30;99.90
23579;DHT22;11967;50.852;4.400;2023-09-08T06:05:55;26.20;99.90
23579;DHT22;11967;50.852;4.400;2023-09-08T06:08:21;26.20;99.90
23579;DHT22;11967;50.852;4.400;2023-09-08T06:10:47;26.20;99.90
23579;DHT22;11967;50.852;4.400;2023-09-08T06:13:13;26.10;99.90
23579;DHT22;11967;50.852;4.400;2023-09-08T06:15:38;26.10;99.90
23579;DHT22;11967;50.852;4.400;2023-09-08T06:18:05;26.20;99.90
23579;DHT22;11967;50.852;4.400;2023-09-08T06:20:30;26.30;99.90
23579;DHT22;11967;50.852;4.400;2023-09-08T06:22:56;26.40;99.90
23579;DHT22;11967;50.852;4.400;2023-09-08T06:25:22;26.50;99.90
23579;DHT22;11967;50.852;4.400;2023-09-08T06:27:47;26.60;99.90
23579;DHT22;11967;50.852;4.400;2023-09-08T06:30:13;26.60;99.90
23579;DHT22;11967;50.852;4.400;2023-09-08T06:32:39;26.60;99.90
23579;DHT22;11967;50.852;4.400;2023-09-08T06:35:06;26.50;99.90
23579;DHT22;11967;50.852;4.400;2023-09-08T06:37:38;26.60;99.90
23579;DHT22;11967;50.852;4.400;2023-09-08T06:40:05;26.70;99.90
23579;DHT22;11967;50.852;4.400;2023-09-08T06:42:31;26.70;99.90
23579;DHT22;11967;50.852;4.400;2023-09-08T06:44:58;26.60;99.90
23579;DHT22;11967;50.852;4.400;2023-09-08T06:47:24;26.50;99.90
23579;DHT22;11967;50.852;4.400;2023-09-08T06:49:49;26.40;99.90
23579;DHT22;11967;50.852;4.400;2023-09-08T06:52:16;26.30;99.90
23579;DHT22;11967;50.852;4.400;2023-09-08T06:54:41;26.20;99.90
23579;DHT22;11967;50.852;4.400;2023-09-08T06:57:07;26.30;99.90
23579;DHT22;11967;50.852;4.400;2023-09-08T06:59:33;26.30;99.90
23579;DHT22;11967;50.852;4.400;2023-09-08T07:01:58;26.30;99.90
23579;DHT22;11967;50.852;4.400;2023-09-08T07:04:24;26.30;99.90
23579;DHT22;11967;50.852;4.400;2023-09-08T07:06:50;26.40;99.90
23579;DHT22;11967;50.852;4.400;2023-09-08T07:09:17;26.40;99.90
23579;DHT22;11967;50.852;4.400;2023-09-08T07:11:42;26.50;99.90
23579;DHT22;11967;50.852;4.400;2023-09-08T07:14:08;26.40;99.90
23579;DHT22;11967;50.852;4.400;2023-09-08T07:16:34;26.40;99.90
23579;DHT22;11967;50.852;4.400;2023-09-08T07:19:00;26.50;99.90
23579;DHT22;11967;50.852;4.400;2023-09-08T07:21:26;26.50;99.90
23579;DHT22;11967;50.852;4.400;2023-09-08T07:23:52;26.50;99.90
23579;DHT22;11967;50.852;4.400;2023-09-08T07:26:19;26.50;99.90
23579;DHT22;11967;50.852;4.400;2023-09-08T07:28:45;26.20;99.90
23579;DHT22;11967;50.852;4.400;2023-09-08T07:31:11;26.10;99.90
23579;DHT22;11967;50.852;4.400;2023-09-08T07:33:37;26.10;99.90
23579;DHT22;11967;50.852;4.400;2023-09-08T07:36:07;26.00;99.90
23579;DHT22;11967;50.852;4.400;2023-09-08T07:38:34;26.10;99.90
23579;DHT22;11967;50.852;4.400;2023-09-08T07:41:01;26.20;99.90
23579;DHT22;11967;50.852;4.400;2023-09-08T07:43:28;26.30;99.90
23579;DHT22;11967;50.852;4.400;2023-09-08T07:45:55;26.40;99.90
23579;DHT22;11967;50.852;4.400;2023-09-08T07:48:21;26.50;99.90
23579;DHT22;11967;50.852;4.400;2023-09-08T07:50:47;26.50;99.90
23579;DHT22;11967;50.852;4.400;2023-09-08T07:53:12;26.60;99.90
23579;DHT22;11967;50.852;4.400;2023-09-08T07:55:38;26.60;99.90
23579;DHT22;11967;50.852;4.400;2023-09-08T07:58:04;26.60;99.90
23579;DHT22;11967;50.852;4.400;2023-09-08T08:00:30;26.70;99.90
23579;DHT22;11967;50.852;4.400;2023-09-08T08:02:57;26.80;99.90
23579;DHT22;11967;50.852;4.400;2023-09-08T08:05:24;26.80;99.90
23579;DHT22;11967;50.852;4.400;2023-09-08T08:07:50;26.60;99.90
23579;DHT22;11967;50.852;4.400;2023-09-08T08:10:16;26.60;99.90
23579;DHT22;11967;50.852;4.400;2023-09-08T08:12:42;26.50;99.90
23579;DHT22;11967;50.852;4.400;2023-09-08T08:15:10;26.50;99.90
23579;DHT22;11967;50.852;4.400;2023-09-08T08:17:37;26.60;99.90
23579;DHT22;11967;50.852;4.400;2023-09-08T08:20:04;26.70;99.90
23579;DHT22;11967;50.852;4.400;2023-09-08T08:22:37;26.80;99.90
23579;DHT22;11967;50.852;4.400;2023-09-08T08:25:03;26.80;99.90
23579;DHT22;11967;50.852;4.400;2023-09-08T08:27:29;26.90;99.90
23579;DHT22;11967;50.852;4.400;2023-09-08T08:29:57;26.90;99.90
23579;DHT22;11967;50.852;4.400;2023-09-08T08:32:25;27.00;99.90
23579;DHT22;11967;50.852;4.400;2023-09-08T08:34:50;26.90;99.90
23579;DHT22;11967;50.852;4.400;2023-09-08T08:37:16;26.90;99.90
23579;DHT22;11967;50.852;4.400;2023-09-08T08:39:42;27.00;99.90
23579;DHT22;11967;50.852;4.400;2023-09-08T08:42:09;27.00;99.90
23579;DHT22;11967;50.852;4.400;2023-09-08T08:44:40;27.20;99.90
23579;DHT22;11967;50.852;4.400;2023-09-08T08:47:07;27.30;99.90
23579;DHT22;11967;50.852;4.400;2023-09-08T08:49:34;27.40;99.90
23579;DHT22;11967;50.852;4.400;2023-09-08T08:52:00;27.50;99.90
23579;DHT22;11967;50.852;4.400;2023-09-08T08:54:29;27.50;99.90
23579;DHT22;11967;50.852;4.400;2023-09-08T08:56:56;27.60;99.90
23579;DHT22;11967;50.852;4.400;2023-09-08T08:59:22;27.70;99.90
23579;DHT22;11967;50.852;4.400;2023-09-08T09:01:48;27.70;99.90
23579;DHT22;11967;50.852;4.400;2023-09-08T09:04:16;27.80;99.90
23579;DHT22;11967;50.852;4.400;2023-09-08T09:06:42;27.90;99.90
23579;DHT22;11967;50.852;4.400;2023-09-08T09:09:07;28.00;99.90
23579;DHT22;11967;50.852;4.400;2023-09-08T09:11:36;28.00;99.90
23579;DHT22;11967;50.852;4.400;2023-09-08T09:14:01;28.00;99.90
23579;DHT22;11967;50.852;4.400;2023-09-08T09:16:27;28.00;99.90
23579;DHT22;11967;50.852;4.400;2023-09-08T09:18:57;28.00;99.90
23579;DHT22;11967;50.852;4.400;2023-09-08T09:21:23;28.10;99.90
23579;DHT22;11967;50.852;4.400;2023-09-08T09:23:50;28.20;99.90
23579;DHT22;11967;50.852;4.400;2023-09-08T09:26:25;28.20;99.90
23579;DHT22;11967;50.852;4.400;2023-09-08T09:28:51;28.40;99.90
23579;DHT22;11967;50.852;4.400;2023-09-08T09:31:23;28.40;99.90
23579;DHT22;11967;50.852;4.400;2023-09-08T09:34:01;28.40;99.90
23579;DHT22;11967;50.852;4.400;2023-09-08T09:36:28;28.50;99.90
23579;DHT22;11967;50.852;4.400;2023-09-08T09:38:58;28.50;99.90
23579;DHT22;11967;50.852;4.400;2023-09-08T09:41:26;28.60;99.90
23579;DHT22;11967;50.852;4.400;2023-09-08T09:43:52;28.60;99.90
23579;DHT22;11967;50.852;4.400;2023-09-08T09:46:19;28.70;99.90
23579;DHT22;11967;50.852;4.400;2023-09-08T09:48:51;28.70;99.90
23579;DHT22;11967;50.852;4.400;2023-09-08T09:51:19;28.80;99.90
23579;DHT22;11967;50.852;4.400;2023-09-08T09:53:45;28.90;99.90
23579;DHT22;11967;50.852;4.400;2023-09-08T09:56:11;29.00;99.90
23579;DHT22;11967;50.852;4.400;2023-09-08T09:58:38;29.00;99.90
23579;DHT22;11967;50.852;4.400;2023-09-08T10:01:05;29.10;99.90
23579;DHT22;11967;50.852;4.400;2023-09-08T10:03:31;29.20;99.90
23579;DHT22;11967;50.852;4.400;2023-09-08T10:05:59;29.20;99.90
23579;DHT22;11967;50.852;4.400;2023-09-08T10:08:25;29.40;99.90
23579;DHT22;11967;50.852;4.400;2023-09-08T10:10:52;29.40;99.90
23579;DHT22;11967;50.852;4.400;2023-09-08T10:13:26;29.40;99.90
23579;DHT22;11967;50.852;4.400;2023-09-08T10:15:57;29.50;99.90
23579;DHT22;11967;50.852;4.400;2023-09-08T10:18:24;29.60;99.90
23579;DHT22;11967;50.852;4.400;2023-09-08T10:20:52;29.60;99.90
23579;DHT22;11967;50.852;4.400;2023-09-08T10:23:35;29.70;99.90
23579;DHT22;11967;50.852;4.400;2023-09-08T10:26:02;29.80;99.90
23579;DHT22;11967;50.852;4.400;2023-09-08T10:28:31;29.90;99.90
23579;DHT22;11967;50.852;4.400;2023-09-08T10:30:58;29.90;99.90
23579;DHT22;11967;50.852;4.400;2023-09-08T10:33:25;30.00;99.90
23579;DHT22;11967;50.852;4.400;2023-09-08T10:35:51;30.00;99.90
23579;DHT22;11967;50.852;4.400;2023-09-08T10:38:22;29.90;99.90
23579;DHT22;11967;50.852;4.400;2023-09-08T10:43:37;30.10;99.90
23579;DHT22;11967;50.852;4.400;2023-09-08T10:46:09;30.10;99.90
23579;DHT22;11967;50.852;4.400;2023-09-08T10:48:44;30.10;99.90
23579;DHT22;11967;50.852;4.400;2023-09-08T10:51:17;30.20;99.90
23579;DHT22;11967;50.852;4.400;2023-09-08T10:53:43;30.30;99.90
23579;DHT22;11967;50.852;4.400;2023-09-08T10:56:11;30.30;99.90
23579;DHT22;11967;50.852;4.400;2023-09-08T10:58:38;30.30;99.90
23579;DHT22;11967;50.852;4.400;2023-09-08T11:01:12;30.40;99.90
23579;DHT22;11967;50.852;4.400;2023-09-08T11:06:06;30.50;99.90
23579;DHT22;11967;50.852;4.400;2023-09-08T11:08:33;30.60;99.90
23579;DHT22;11967;50.852;4.400;2023-09-08T11:10:59;30.60;99.90
23579;DHT22;11967;50.852;4.400;2023-09-08T11:13:28;30.60;99.90
23579;DHT22;11967;50.852;4.400;2023-09-08T11:15:54;30.60;99.90
23579;DHT22;11967;50.852;4.400;2023-09-08T11:18:27;30.70;99.90
23579;DHT22;11967;50.852;4.400;2023-09-08T11:20:53;30.70;99.90
23579;DHT22;11967;50.852;4.400;2023-09-08T11:23:19;30.70;99.90
23579;DHT22;11967;50.852;4.400;2023-09-08T11:25:46;30.80;99.90
23579;DHT22;11967;50.852;4.400;2023-09-08T11:28:12;30.80;99.90
23579;DHT22;11967;50.852;4.400;2023-09-08T11:30:39;30.90;99.90
23579;DHT22;11967;50.852;4.400;2023-09-08T11:33:14;30.80;99.90
23579;DHT22;11967;50.852;4.400;2023-09-08T11:35:39;30.90;99.90
23579;DHT22;11967;50.852;4.400;2023-09-08T11:38:05;30.90;99.90
23579;DHT22;11967;50.852;4.400;2023-09-08T11:40:31;31.00;99.90
23579;DHT22;11967;50.852;4.400;2023-09-08T11:42:58;31.00;99.90
23579;DHT22;11967;50.852;4.400;2023-09-08T11:45:24;31.00;99.90
23579;DHT22;11967;50.852;4.400;2023-09-08T11:47:52;31.10;99.90
23579;DHT22;11967;50.852;4.400;2023-09-08T11:50:19;31.10;99.90
23579;DHT22;11967;50.852;4.400;2023-09-08T11:52:46;31.10;99.90
23579;DHT22;11967;50.852;4.400;2023-09-08T11:55:12;31.20;99.90
23579;DHT22;11967;50.852;4.400;2023-09-08T11:57:39;31.20;99.90
23579;DHT22;11967;50.852;4.400;2023-09-08T12:00:06;31.20;99.90
23579;DHT22;11967;50.852;4.400;2023-09-08T12:02:38;31.30;99.90
23579;DHT22;11967;50.852;4.400;2023-09-08T12:05:04;31.30;99.90
23579;DHT22;11967;50.852;4.400;2023-09-08T12:07:30;31.30;99.90
23579;DHT22;11967;50.852;4.400;2023-09-08T12:09:55;31.40;99.90
23579;DHT22;11967;50.852;4.400;2023-09-08T12:12:21;31.40;99.90
23579;DHT22;11967;50.852;4.400;2023-09-08T12:14:47;31.50;99.90
23579;DHT22;11967;50.852;4.400;2023-09-08T12:17:12;31.50;99.90
23579;DHT22;11967;50.852;4.400;2023-09-08T12:19:42;31.50;99.90
23579;DHT22;11967;50.852;4.400;2023-09-08T12:22:08;31.60;99.90
23579;DHT22;11967;50.852;4.400;2023-09-08T12:24:55;31.70;99.90
23579;DHT22;11967;50.852;4.400;2023-09-08T12:27:24;31.70;99.90
23579;DHT22;11967;50.852;4.400;2023-09-08T12:29:58;31.70;99.90
23579;DHT22;11967;50.852;4.400;2023-09-08T12:32:26;31.70;99.90
23579;DHT22;11967;50.852;4.400;2023-09-08T12:34:53;31.70;99.90
23579;DHT22;11967;50.852;4.400;2023-09-08T12:37:21;31.70;99.90
23579;DHT22;11967;50.852;4.400;2023-09-08T12:39:47;31.80;99.90
23579;DHT22;11967;50.852;4.400;2023-09-08T12:42:13;31.80;99.90
23579;DHT22;11967;50.852;4.400;2023-09-08T12:44:38;31.80;99.90
23579;DHT22;11967;50.852;4.400;2023-09-08T12:47:06;31.80;99.90
23579;DHT22;11967;50.852;4.400;2023-09-08T12:49:31;31.80;99.90
23579;DHT22;11967;50.852;4.400;2023-09-08T12:51:57;31.90;99.90
23579;DHT22;11967;50.852;4.400;2023-09-08T12:54:24;31.90;99.90
23579;DHT22;11967;50.852;4.400;2023-09-08T12:56:49;32.00;99.90
23579;DHT22;11967;50.852;4.400;2023-09-08T12:59:18;32.00;99.90
23579;DHT22;11967;50.852;4.400;2023-09-08T13:01:44;32.00;99.90
23579;DHT22;11967;50.852;4.400;2023-09-08T13:04:09;32.00;99.90
23579;DHT22;11967;50.852;4.400;2023-09-08T13:06:35;31.90;99.90
23579;DHT22;11967;50.852;4.400;2023-09-08T13:09:01;31.90;99.90
23579;DHT22;11967;50.852;4.400;2023-09-08T13:11:27;31.80;99.90
23579;DHT22;11967;50.852;4.400;2023-09-08T13:13:53;31.80;99.90
23579;DHT22;11967;50.852;4.400;2023-09-08T13:16:19;31.80;99.90
23579;DHT22;11967;50.852;4.400;2023-09-08T13:18:45;31.90;99.90
23579;DHT22;11967;50.852;4.400;2023-09-08T13:21:11;31.90;99.90
23579;DHT22;11967;50.852;4.400;2023-09-08T13:23:37;31.80;99.90
23579;DHT22;11967;50.852;4.400;2023-09-08T13:26:02;31.80;99.90
23579;DHT22;11967;50.852;4.400;2023-09-08T13:28:28;32.00;99.90
23579;DHT22;11967;50.852;4.400;2023-09-08T13:30:53;32.00;99.90
23579;DHT22;11967;50.852;4.400;2023-09-08T13:33:19;32.10;99.90
23579;DHT22;11967;50.852;4.400;2023-09-08T13:35:45;32.10;99.90
23579;DHT22;11967;50.852;4.400;2023-09-08T13:38:11;32.00;99.90
23579;DHT22;11967;50.852;4.400;2023-09-08T13:40:37;32.00;99.90
23579;DHT22;11967;50.852;4.400;2023-09-08T13:43:02;31.80;99.90
23579;DHT22;11967;50.852;4.400;2023-09-08T13:45:28;31.80;99.90
23579;DHT22;11967;50.852;4.400;2023-09-08T13:47:54;31.90;99.90
23579;DHT22;11967;50.852;4.400;2023-09-08T13:50:19;31.80;99.90
23579;DHT22;11967;50.852;4.400;2023-09-08T13:52:45;31.80;99.90
23579;DHT22;11967;50.852;4.400;2023-09-08T13:55:11;31.90;99.90
23579;DHT22;11967;50.852;4.400;2023-09-08T13:57:36;31.90;99.90
23579;DHT22;11967;50.852;4.400;2023-09-08T14:00:03;32.00;99.90
23579;DHT22;11967;50.852;4.400;2023-09-08T14:02:29;32.10;99.90
23579;DHT22;11967;50.852;4.400;2023-09-08T14:04:54;32.20;99.90
23579;DHT22;11967;50.852;4.400;2023-09-08T14:07:20;32.00;99.90
23579;DHT22;11967;50.852;4.400;2023-09-08T14:09:46;32.00;99.90
23579;DHT22;11967;50.852;4.400;2023-09-08T14:12:11;32.10;99.90
23579;DHT22;11967;50.852;4.400;2023-09-08T14:14:37;32.00;99.90
23579;DHT22;11967;50.852;4.400;2023-09-08T14:17:03;31.90;99.90
23579;DHT22;11967;50.852;4.400;2023-09-08T14:19:29;31.80;99.90
23579;DHT22;11967;50.852;4.400;2023-09-08T14:21:54;31.90;99.90
23579;DHT22;11967;50.852;4.400;2023-09-08T14:24:21;32.00;99.90
23579;DHT22;11967;50.852;4.400;2023-09-08T14:26:47;32.00;99.90
23579;DHT22;11967;50.852;4.400;2023-09-08T14:29:12;31.90;99.90
23579;DHT22;11967;50.852;4.400;2023-09-08T14:31:38;31.80;99.90
23579;DHT22;11967;50.852;4.400;2023-09-08T14:34:04;31.80;99.90
23579;DHT22;11967;50.852;4.400;2023-09-08T14:36:29;31.80;99.90
23579;DHT22;11967;50.852;4.400;2023-09-08T14:38:55;31.80;99.90
23579;DHT22;11967;50.852;4.400;2023-09-08T14:41:21;31.90;99.90
23579;DHT22;11967;50.852;4.400;2023-09-08T14:43:47;32.00;99.90
23579;DHT22;11967;50.852;4.400;2023-09-08T14:46:13;32.00;99.90
23579;DHT22;11967;50.852;4.400;2023-09-08T14:48:38;32.00;99.90
23579;DHT22;11967;50.852;4.400;2023-09-08T14:51:04;32.00;99.90
23579;DHT22;11967;50.852;4.400;2023-09-08T14:53:30;32.00;99.90
23579;DHT22;11967;50.852;4.400;2023-09-08T14:56:00;32.00;99.90
23579;DHT22;11967;50.852;4.400;2023-09-08T14:58:26;32.00;99.90
23579;DHT22;11967;50.852;4.400;2023-09-08T15:00:58;32.10;99.90
23579;DHT22;11967;50.852;4.400;2023-09-08T15:03:25;32.10;99.90
23579;DHT22;11967;50.852;4.400;2023-09-08T15:05:51;32.00;99.90
23579;DHT22;11967;50.852;4.400;2023-09-08T15:08:16;31.90;99.90
23579;DHT22;11967;50.852;4.400;2023-09-08T15:10:42;32.00;99.90
23579;DHT22;11967;50.852;4.400;2023-09-08T15:13:08;31.90;99.90
23579;DHT22;11967;50.852;4.400;2023-09-08T15:15:33;31.80;99.90
23579;DHT22;11967;50.852;4.400;2023-09-08T15:18:01;31.90;99.90
23579;DHT22;11967;50.852;4.400;2023-09-08T15:20:27;31.90;99.90
23579;DHT22;11967;50.852;4.400;2023-09-08T15:22:52;31.90;99.90
23579;DHT22;11967;50.852;4.400;2023-09-08T15:25:18;31.90;99.90
23579;DHT22;11967;50.852;4.400;2023-09-08T15:27:43;31.80;99.90
23579;DHT22;11967;50.852;4.400;2023-09-08T15:30:10;31.80;99.90
23579;DHT22;11967;50.852;4.400;2023-09-08T15:32:36;31.80;99.90
23579;DHT22;11967;50.852;4.400;2023-09-08T15:35:05;31.90;99.90
23579;DHT22;11967;50.852;4.400;2023-09-08T15:37:31;31.90;99.90